sensor_id;sensor_type;location;lat;lon;timestamp;pressure;altitude;pressure_sealevel;temperature;humidity
45327;BME280;31062;49.678;24.560;2023-02-13T00:00:31;99986.06;;;-1.17;67.24
45327;BME280;31062;49.678;24.560;2023-02-13T00:03:17;100016.63;;;-1.23;67.58
45327;BME280;31062;49.678;24.560;2023-02-13T00:06:02;99956.63;;;-1.37;67.76
45327;BME280;31062;49.678;24.560;2023-02-13T00:08:48;99973.25;;;-1.26;67.94
45327;BME280;31062;49.678;24.560;2023-02-13T00:11:33;99769.97;;;-2.62;67.64
45327;BME280;31062;49.678;24.560;2023-02-13T00:14:19;99945.84;;;-1.41;67.52
45327;BME280;31062;49.678;24.560;2023-02-13T00:17:05;99945.25;;;-1.45;66.91
45327;BME280;31062;49.678;24.560;2023-02-13T00:19:51;99970.66;;;-1.39;67.88
45327;BME280;31062;49.678;24.560;2023-02-13T00:22:37;99906.56;;;-1.67;68.08
45327;BME280;31062;49.678;24.560;2023-02-13T00:25:22;99953.88;;;-1.37;69.44
45327;BME280;31062;49.678;24.560;2023-02-13T00:28:08;99943.75;;;-1.46;69.19
45327;BME280;31062;49.678;24.560;2023-02-13T00:30:53;99958.84;;;-1.54;70.13
45327;BME280;31062;49.678;24.560;2023-02-13T00:33:39;99974.84;;;-1.65;69.80
45327;BME280;31062;49.678;24.560;2023-02-13T00:36:25;99768.34;;;-2.91;69.91
45327;BME280;31062;49.678;24.560;2023-02-13T00:39:11;99952.16;;;-1.80;69.95
45327;BME280;31062;49.678;24.560;2023-02-13T00:41:56;99955.94;;;-1.78;70.63
45327;BME280;31062;49.678;24.560;2023-02-13T00:44:42;99975.56;;;-1.83;71.39
45327;BME280;31062;49.678;24.560;2023-02-13T00:47:27;99954.84;;;-1.89;71.19
45327;BME280;31062;49.678;24.560;2023-02-13T00:50:13;99945.94;;;-1.99;71.68
45327;BME280;31062;49.678;24.560;2023-02-13T00:52:58;99957.25;;;-2.00;71.98
45327;BME280;31062;49.678;24.560;2023-02-13T00:55:44;99858.91;;;-2.75;71.94
45327;BME280;31062;49.678;24.560;2023-02-13T00:58:30;99957.25;;;-2.00;72.06
45327;BME280;31062;49.678;24.560;2023-02-13T01:01:16;99867.06;;;-2.66;72.40
45327;BME280;31062;49.678;24.560;2023-02-13T01:04:01;99897.31;;;-2.46;72.37
45327;BME280;31062;49.678;24.560;2023-02-13T01:06:47;99918.03;;;-2.30;72.42
45327;BME280;31062;49.678;24.560;2023-02-13T01:09:33;99969.31;;;-2.01;73.20
45327;BME280;31062;49.678;24.560;2023-02-13T01:12:18;99910.66;;;-2.30;72.55
45327;BME280;31062;49.678;24.560;2023-02-13T01:15:04;99910.03;;;-2.34;72.26
45327;BME280;31062;49.678;24.560;2023-02-13T01:17:54;99958.31;;;-1.98;72.87
45327;BME280;31062;49.678;24.560;2023-02-13T01:20:44;99945.16;;;-1.99;72.41
45327;BME280;31062;49.678;24.560;2023-02-13T01:23:36;99897.38;;;-2.28;72.95
45327;BME280;31062;49.678;24.560;2023-02-13T01:26:23;99947.91;;;-1.90;72.59
45327;BME280;31062;49.678;24.560;2023-02-13T01:29:11;99914.50;;;-2.09;72.49
45327;BME280;31062;49.678;24.560;2023-02-13T01:31:57;99977.84;;;-1.81;71.73
45327;BME280;31062;49.678;24.560;2023-02-13T01:34:45;99934.03;;;-1.92;72.06
45327;BME280;31062;49.678;24.560;2023-02-13T01:37:31;99928.88;;;-1.99;71.98
45327;BME280;31062;49.678;24.560;2023-02-13T01:40:18;99936.53;;;-2.07;72.22
45327;BME280;31062;49.678;24.560;2023-02-13T01:43:07;99942.06;;;-1.80;72.24
45327;BME280;31062;49.678;24.560;2023-02-13T01:45:55;99918.00;;;-1.99;72.82
45327;BME280;31062;49.678;24.560;2023-02-13T01:48:41;99942.78;;;-1.88;72.72
45327;BME280;31062;49.678;24.560;2023-02-13T01:51:30;99737.34;;;-3.20;72.50
45327;BME280;31062;49.678;24.560;2023-02-13T01:54:24;99935.16;;;-2.12;73.02
45327;BME280;31062;49.678;24.560;2023-02-13T01:57:20;99951.88;;;-1.73;72.75
45327;BME280;31062;49.678;24.560;2023-02-13T02:00:14;99950.09;;;-1.67;72.62
45327;BME280;31062;49.678;24.560;2023-02-13T02:03:14;99942.53;;;-1.54;72.30
45327;BME280;31062;49.678;24.560;2023-02-13T02:06:02;99954.91;;;-1.53;72.38
45327;BME280;31062;49.678;24.560;2023-02-13T02:08:50;99950.25;;;-1.52;72.56
45327;BME280;31062;49.678;24.560;2023-02-13T02:12:01;99939.81;;;-1.54;72.28
45327;BME280;31062;49.678;24.560;2023-02-13T02:14:54;99957.94;;;-1.60;71.36
45327;BME280;31062;49.678;24.560;2023-02-13T02:17:41;99954.28;;;-1.66;72.26
45327;BME280;31062;49.678;24.560;2023-02-13T02:40:18;99956.66;;;-1.95;76.08
45327;BME280;31062;49.678;24.560;2023-02-13T02:43:39;99803.22;;;-2.80;76.70
45327;BME280;31062;49.678;24.560;2023-02-13T02:46:36;99928.59;;;-1.92;76.96
45327;BME280;31062;49.678;24.560;2023-02-13T02:49:25;99926.16;;;-1.90;77.21
45327;BME280;31062;49.678;24.560;2023-02-13T02:52:40;99716.06;;;-3.31;77.60
45327;BME280;31062;49.678;24.560;2023-02-13T02:55:42;99947.78;;;-1.87;78.34
45327;BME280;31062;49.678;24.560;2023-02-13T03:01:47;99949.88;;;-1.82;79.25
45327;BME280;31062;49.678;24.560;2023-02-13T03:04:56;99899.31;;;-1.79;78.52
45327;BME280;31062;49.678;24.560;2023-02-13T03:08:04;99683.25;;;-3.15;79.28
45327;BME280;31062;49.678;24.560;2023-02-13T03:10:50;99896.59;;;-1.70;79.13
45327;BME280;31062;49.678;24.560;2023-02-13T03:13:54;99690.09;;;-3.01;78.71
45327;BME280;31062;49.678;24.560;2023-02-13T03:16:41;99741.28;;;-2.63;79.18
45327;BME280;31062;49.678;24.560;2023-02-13T03:29:43;99895.38;;;-1.24;78.33
45327;BME280;31062;49.678;24.560;2023-02-13T03:36:30;99795.97;;;-1.52;78.73
45327;BME280;31062;49.678;24.560;2023-02-13T03:39:51;99879.09;;;-0.82;77.58
45327;BME280;31062;49.678;24.560;2023-02-13T03:42:46;99667.69;;;-2.11;77.68
45327;BME280;31062;49.678;24.560;2023-02-13T03:45:38;99874.66;;;-0.61;77.37
45327;BME280;31062;49.678;24.560;2023-02-13T03:48:39;99853.50;;;-0.75;77.09
45327;BME280;31062;49.678;24.560;2023-02-13T03:51:53;99865.78;;;-0.37;77.09
45327;BME280;31062;49.678;24.560;2023-02-13T03:54:45;99896.91;;;-0.29;76.45
45327;BME280;31062;49.678;24.560;2023-02-13T03:57:52;99864.16;;;-0.20;76.09
45327;BME280;31062;49.678;24.560;2023-02-13T04:00:59;99873.22;;;-0.14;75.97
45327;BME280;31062;49.678;24.560;2023-02-13T04:03:58;99883.78;;;-0.07;76.00
45327;BME280;31062;49.678;24.560;2023-02-13T04:09:39;99904.00;;;0.01;75.58
45327;BME280;31062;49.678;24.560;2023-02-13T04:12:47;99882.81;;;0.05;75.97
45327;BME280;31062;49.678;24.560;2023-02-13T04:15:44;99889.75;;;0.06;75.33
45327;BME280;31062;49.678;24.560;2023-02-13T04:18:31;99867.13;;;-0.09;76.42
45327;BME280;31062;49.678;24.560;2023-02-13T04:21:17;99869.72;;;-0.15;77.15
45327;BME280;31062;49.678;24.560;2023-02-13T04:24:03;99846.72;;;-0.14;77.06
45327;BME280;31062;49.678;24.560;2023-02-13T04:26:49;99862.19;;;0.04;75.76
45327;BME280;31062;49.678;24.560;2023-02-13T04:29:34;99874.84;;;0.16;76.70
45327;BME280;31062;49.678;24.560;2023-02-13T04:32:20;99847.69;;;-0.02;76.88
45327;BME280;31062;49.678;24.560;2023-02-13T04:35:05;99703.72;;;-0.99;75.98
45327;BME280;31062;49.678;24.560;2023-02-13T04:37:51;99885.16;;;0.12;76.37
45327;BME280;31062;49.678;24.560;2023-02-13T04:40:36;99893.47;;;0.18;76.34
45327;BME280;31062;49.678;24.560;2023-02-13T04:43:22;99658.00;;;-1.18;76.81
45327;BME280;31062;49.678;24.560;2023-02-13T04:46:09;99670.25;;;-1.14;76.21
45327;BME280;31062;49.678;24.560;2023-02-13T04:48:54;99859.03;;;0.20;76.49
45327;BME280;31062;49.678;24.560;2023-02-13T04:51:40;99872.03;;;0.25;77.04
45327;BME280;31062;49.678;24.560;2023-02-13T04:54:26;99858.47;;;0.16;76.65
45327;BME280;31062;49.678;24.560;2023-02-13T04:57:12;99758.09;;;-0.33;76.95
45327;BME280;31062;49.678;24.560;2023-02-13T04:59:58;99649.16;;;-1.04;76.36
45327;BME280;31062;49.678;24.560;2023-02-13T05:02:47;99691.75;;;-0.68;76.68
45327;BME280;31062;49.678;24.560;2023-02-13T05:05:35;99861.63;;;0.38;76.89
45327;BME280;31062;49.678;24.560;2023-02-13T05:08:31;99841.44;;;0.45;76.97
45327;BME280;31062;49.678;24.560;2023-02-13T05:11:16;99847.28;;;0.53;76.58
45327;BME280;31062;49.678;24.560;2023-02-13T05:14:02;99842.56;;;0.53;77.06
45327;BME280;31062;49.678;24.560;2023-02-13T05:16:48;99829.66;;;0.54;76.29
45327;BME280;31062;49.678;24.560;2023-02-13T05:19:36;99824.56;;;0.32;76.64
45327;BME280;31062;49.678;24.560;2023-02-13T05:22:22;99839.84;;;0.68;76.14
45327;BME280;31062;49.678;24.560;2023-02-13T05:25:26;99823.38;;;0.62;76.41
45327;BME280;31062;49.678;24.560;2023-02-13T05:28:13;99784.03;;;0.39;75.87
45327;BME280;31062;49.678;24.560;2023-02-13T05:31:23;99644.56;;;-0.51;76.30
45327;BME280;31062;49.678;24.560;2023-02-13T05:34:09;99836.19;;;0.71;76.08
45327;BME280;31062;49.678;24.560;2023-02-13T05:36:54;99799.66;;;0.54;75.93
45327;BME280;31062;49.678;24.560;2023-02-13T05:39:40;99823.00;;;0.69;76.51
45327;BME280;31062;49.678;24.560;2023-02-13T05:42:25;99657.47;;;-0.36;76.67
45327;BME280;31062;49.678;24.560;2023-02-13T05:45:11;99682.19;;;-0.25;76.45
45327;BME280;31062;49.678;24.560;2023-02-13T05:47:56;99815.47;;;0.50;76.43
45327;BME280;31062;49.678;24.560;2023-02-13T05:50:42;99835.06;;;0.63;76.66
45327;BME280;31062;49.678;24.560;2023-02-13T05:53:29;99830.44;;;0.83;76.57
45327;BME280;31062;49.678;24.560;2023-02-13T05:56:16;99830.94;;;0.82;76.39
45327;BME280;31062;49.678;24.560;2023-02-13T05:59:01;99666.97;;;-0.32;76.97
45327;BME280;31062;49.678;24.560;2023-02-13T06:01:48;99825.47;;;0.82;78.15
45327;BME280;31062;49.678;24.560;2023-02-13T06:04:34;99820.56;;;0.86;79.08
45327;BME280;31062;49.678;24.560;2023-02-13T06:07:20;99826.88;;;0.92;79.34
45327;BME280;31062;49.678;24.560;2023-02-13T06:10:06;99829.78;;;1.03;80.13
45327;BME280;31062;49.678;24.560;2023-02-13T06:12:51;99638.22;;;-0.18;79.50
45327;BME280;31062;49.678;24.560;2023-02-13T06:15:37;99807.16;;;1.03;80.21
45327;BME280;31062;49.678;24.560;2023-02-13T06:18:23;99836.16;;;1.30;79.94
45327;BME280;31062;49.678;24.560;2023-02-13T06:21:09;99618.13;;;-0.06;80.33
45327;BME280;31062;49.678;24.560;2023-02-13T06:23:55;99787.75;;;1.15;80.92
45327;BME280;31062;49.678;24.560;2023-02-13T06:26:40;99706.09;;;0.68;80.46
45327;BME280;31062;49.678;24.560;2023-02-13T06:29:26;99832.88;;;1.60;80.95
45327;BME280;31062;49.678;24.560;2023-02-13T06:32:17;99823.50;;;1.67;81.34
45327;BME280;31062;49.678;24.560;2023-02-13T06:35:22;99809.28;;;1.63;81.33
45327;BME280;31062;49.678;24.560;2023-02-13T06:38:07;99832.28;;;1.71;81.26
45327;BME280;31062;49.678;24.560;2023-02-13T06:40:58;99825.72;;;1.83;81.48
45327;BME280;31062;49.678;24.560;2023-02-13T06:43:46;99800.59;;;1.44;81.51
45327;BME280;31062;49.678;24.560;2023-02-13T06:46:32;99791.66;;;1.64;81.58
45327;BME280;31062;49.678;24.560;2023-02-13T06:49:18;99811.78;;;1.81;81.55
45327;BME280;31062;49.678;24.560;2023-02-13T06:52:03;99828.06;;;1.90;81.21
45327;BME280;31062;49.678;24.560;2023-02-13T06:54:49;99819.88;;;1.90;81.33
45327;BME280;31062;49.678;24.560;2023-02-13T06:57:35;99848.03;;;1.96;81.22
45327;BME280;31062;49.678;24.560;2023-02-13T07:00:20;99823.97;;;2.00;81.47
45327;BME280;31062;49.678;24.560;2023-02-13T07:03:06;99803.03;;;1.97;81.34
45327;BME280;31062;49.678;24.560;2023-02-13T07:05:56;99795.78;;;1.94;81.47
45327;BME280;31062;49.678;24.560;2023-02-13T07:08:42;99817.09;;;2.11;81.28
45327;BME280;31062;49.678;24.560;2023-02-13T07:11:29;99797.41;;;1.86;81.42
45327;BME280;31062;49.678;24.560;2023-02-13T07:14:16;99802.47;;;2.14;81.99
45327;BME280;31062;49.678;24.560;2023-02-13T07:17:01;99802.47;;;2.14;81.90
45327;BME280;31062;49.678;24.560;2023-02-13T07:19:47;99804.06;;;2.20;82.43
45327;BME280;31062;49.678;24.560;2023-02-13T07:22:33;99797.31;;;2.21;83.34
45327;BME280;31062;49.678;24.560;2023-02-13T07:25:30;99740.34;;;1.94;83.17
45327;BME280;31062;49.678;24.560;2023-02-13T07:28:16;99766.97;;;2.19;83.25
45327;BME280;31062;49.678;24.560;2023-02-13T07:31:05;99776.75;;;2.26;83.42
45327;BME280;31062;49.678;24.560;2023-02-13T07:33:52;99775.13;;;2.14;83.58
45327;BME280;31062;49.678;24.560;2023-02-13T07:36:38;99791.78;;;2.36;83.44
45327;BME280;31062;49.678;24.560;2023-02-13T07:39:23;99779.31;;;2.35;83.32
45327;BME280;31062;49.678;24.560;2023-02-13T07:42:11;99787.06;;;2.36;83.12
45327;BME280;31062;49.678;24.560;2023-02-13T07:44:57;99759.78;;;2.22;83.29
45327;BME280;31062;49.678;24.560;2023-02-13T07:47:43;99758.25;;;2.21;83.56
45327;BME280;31062;49.678;24.560;2023-02-13T07:50:31;99789.31;;;2.38;83.63
45327;BME280;31062;49.678;24.560;2023-02-13T07:53:17;99582.28;;;1.06;83.46
45327;BME280;31062;49.678;24.560;2023-02-13T07:56:07;99692.69;;;1.80;83.29
45327;BME280;31062;49.678;24.560;2023-02-13T07:58:57;99768.47;;;2.46;83.49
45327;BME280;31062;49.678;24.560;2023-02-13T08:01:51;99714.53;;;2.00;83.46
45327;BME280;31062;49.678;24.560;2023-02-13T08:04:37;99618.66;;;1.38;83.29
45327;BME280;31062;49.678;24.560;2023-02-13T08:07:28;99783.25;;;2.54;83.50
45327;BME280;31062;49.678;24.560;2023-02-13T08:10:15;99768.56;;;2.57;84.07
45327;BME280;31062;49.678;24.560;2023-02-13T08:13:20;99783.53;;;2.56;83.86
45327;BME280;31062;49.678;24.560;2023-02-13T08:16:06;99766.97;;;2.45;84.30
45327;BME280;31062;49.678;24.560;2023-02-13T08:18:52;99779.81;;;2.59;84.07
45327;BME280;31062;49.678;24.560;2023-02-13T08:21:38;99672.38;;;1.87;84.15
45327;BME280;31062;49.678;24.560;2023-02-13T08:24:25;99765.84;;;2.57;83.95
45327;BME280;31062;49.678;24.560;2023-02-13T08:27:14;99776.06;;;2.62;84.17
45327;BME280;31062;49.678;24.560;2023-02-13T08:30:04;99766.63;;;2.63;84.49
45327;BME280;31062;49.678;24.560;2023-02-13T08:32:50;99762.84;;;2.55;84.67
45327;BME280;31062;49.678;24.560;2023-02-13T08:35:38;99805.41;;;2.56;85.24
45327;BME280;31062;49.678;24.560;2023-02-13T08:38:24;99774.59;;;2.61;85.19
45327;BME280;31062;49.678;24.560;2023-02-13T08:41:11;99775.59;;;2.64;85.09
45327;BME280;31062;49.678;24.560;2023-02-13T08:43:57;99770.59;;;2.62;85.25
45327;BME280;31062;49.678;24.560;2023-02-13T08:46:44;99578.94;;;1.37;85.18
45327;BME280;31062;49.678;24.560;2023-02-13T08:49:29;99749.16;;;2.55;85.42
45327;BME280;31062;49.678;24.560;2023-02-13T08:52:15;99563.47;;;1.34;85.18
45327;BME280;31062;49.678;24.560;2023-02-13T08:55:01;99734.91;;;2.51;85.31
45327;BME280;31062;49.678;24.560;2023-02-13T08:57:48;99635.31;;;1.86;85.32
45327;BME280;31062;49.678;24.560;2023-02-13T09:00:34;99749.03;;;2.70;85.32
45327;BME280;31062;49.678;24.560;2023-02-13T09:03:20;99740.00;;;2.64;85.34
45327;BME280;31062;49.678;24.560;2023-02-13T09:06:06;99755.06;;;2.74;84.95
45327;BME280;31062;49.678;24.560;2023-02-13T09:08:52;99757.84;;;2.79;85.32
45327;BME280;31062;49.678;24.560;2023-02-13T09:11:38;99757.84;;;2.79;85.76
45327;BME280;31062;49.678;24.560;2023-02-13T09:14:24;99757.56;;;2.77;85.98
45327;BME280;31062;49.678;24.560;2023-02-13T09:17:12;99606.00;;;1.86;85.92
45327;BME280;31062;49.678;24.560;2023-02-13T09:20:02;99564.50;;;1.62;85.94
45327;BME280;31062;49.678;24.560;2023-02-13T09:22:48;99754.97;;;3.00;86.08
45327;BME280;31062;49.678;24.560;2023-02-13T09:25:35;99768.28;;;3.12;86.04
45327;BME280;31062;49.678;24.560;2023-02-13T09:28:21;99751.38;;;3.19;85.49
45327;BME280;31062;49.678;24.560;2023-02-13T09:31:12;99729.88;;;3.07;85.03
45327;BME280;31062;49.678;24.560;2023-02-13T09:34:00;99754.66;;;3.29;84.95
45327;BME280;31062;49.678;24.560;2023-02-13T09:36:51;99710.25;;;3.14;84.40
45327;BME280;31062;49.678;24.560;2023-02-13T09:39:37;99740.34;;;3.45;84.58
45327;BME280;31062;49.678;24.560;2023-02-13T09:42:30;99740.09;;;3.49;84.03
45327;BME280;31062;49.678;24.560;2023-02-13T09:45:19;99703.38;;;3.35;83.27
45327;BME280;31062;49.678;24.560;2023-02-13T09:51:30;99540.94;;;2.33;82.36
45327;BME280;31062;49.678;24.560;2023-02-13T09:54:16;99739.38;;;3.59;82.74
45327;BME280;31062;49.678;24.560;2023-02-13T10:00:21;99722.94;;;3.59;82.36
45327;BME280;31062;49.678;24.560;2023-02-13T10:06:23;99730.38;;;3.53;82.31
45327;BME280;31062;49.678;24.560;2023-02-13T10:09:43;99720.66;;;3.52;82.11
45327;BME280;31062;49.678;24.560;2023-02-13T10:13:03;99747.06;;;3.50;82.06
45327;BME280;31062;49.678;24.560;2023-02-13T10:16:00;99726.88;;;3.47;82.01
45327;BME280;31062;49.678;24.560;2023-02-13T10:18:53;99733.09;;;3.48;81.95
45327;BME280;31062;49.678;24.560;2023-02-13T10:22:10;99736.09;;;3.44;82.13
45327;BME280;31062;49.678;24.560;2023-02-13T10:27:39;99761.72;;;3.41;82.20
45327;BME280;31062;49.678;24.560;2023-02-13T10:30:31;99768.44;;;3.40;82.28
45327;BME280;31062;49.678;24.560;2023-02-13T10:39:04;99750.72;;;3.36;82.42
45327;BME280;31062;49.678;24.560;2023-02-13T10:42:07;99748.75;;;3.36;82.90
45327;BME280;31062;49.678;24.560;2023-02-13T10:57:28;99708.63;;;3.33;83.45
45327;BME280;31062;49.678;24.560;2023-02-13T11:03:15;99533.38;;;2.17;83.33
45327;BME280;31062;49.678;24.560;2023-02-13T11:06:06;99704.13;;;3.36;84.09
45327;BME280;31062;49.678;24.560;2023-02-13T11:08:53;99715.53;;;3.28;83.63
45327;BME280;31062;49.678;24.560;2023-02-13T11:11:42;99627.19;;;2.91;83.95
45327;BME280;31062;49.678;24.560;2023-02-13T11:14:28;99690.44;;;3.41;84.00
45327;BME280;31062;49.678;24.560;2023-02-13T11:17:17;99683.69;;;3.37;83.70
45327;BME280;31062;49.678;24.560;2023-02-13T11:20:20;99690.44;;;3.41;83.96
45327;BME280;31062;49.678;24.560;2023-02-13T11:26:42;99688.69;;;3.38;83.90
45327;BME280;31062;49.678;24.560;2023-02-13T11:29:30;99689.16;;;3.31;84.19
45327;BME280;31062;49.678;24.560;2023-02-13T11:32:20;99687.94;;;3.32;84.26
45327;BME280;31062;49.678;24.560;2023-02-13T11:35:27;99681.97;;;3.34;84.41
45327;BME280;31062;49.678;24.560;2023-02-13T11:41:11;99682.44;;;3.32;84.68
45327;BME280;31062;49.678;24.560;2023-02-13T11:44:01;99680.94;;;3.31;84.60
45327;BME280;31062;49.678;24.560;2023-02-13T11:46:50;99656.69;;;3.13;84.85
45327;BME280;31062;49.678;24.560;2023-02-13T11:49:37;99652.94;;;3.16;84.83
45327;BME280;31062;49.678;24.560;2023-02-13T11:52:27;99487.00;;;1.96;84.93
45327;BME280;31062;49.678;24.560;2023-02-13T11:55:31;99675.38;;;3.14;84.92
45327;BME280;31062;49.678;24.560;2023-02-13T11:58:25;99643.44;;;3.06;85.02
45327;BME280;31062;49.678;24.560;2023-02-13T12:07:03;99669.72;;;3.29;84.82
45327;BME280;31062;49.678;24.560;2023-02-13T12:13:13;99673.72;;;3.34;85.60
45327;BME280;31062;49.678;24.560;2023-02-13T12:16:34;99668.00;;;3.37;85.48
45327;BME280;31062;49.678;24.560;2023-02-13T12:19:28;99663.75;;;3.36;85.35
45327;BME280;31062;49.678;24.560;2023-02-13T12:25:27;99667.78;;;3.46;85.05
45327;BME280;31062;49.678;24.560;2023-02-13T12:28:45;99668.81;;;3.49;84.98
45327;BME280;31062;49.678;24.560;2023-02-13T12:41:18;99640.66;;;3.59;84.87
45327;BME280;31062;49.678;24.560;2023-02-13T12:47:18;99459.66;;;2.44;83.93
45327;BME280;31062;49.678;24.560;2023-02-13T12:53:23;99465.13;;;2.44;84.09
45327;BME280;31062;49.678;24.560;2023-02-13T13:26:53;99630.28;;;4.02;83.03
45327;BME280;31062;49.678;24.560;2023-02-13T13:29:54;99607.31;;;3.89;82.71
45327;BME280;31062;49.678;24.560;2023-02-13T13:32:42;99503.03;;;3.33;82.89
45327;BME280;31062;49.678;24.560;2023-02-13T13:35:30;99617.31;;;4.14;82.50
45327;BME280;31062;49.678;24.560;2023-02-13T13:41:21;99618.81;;;4.15;81.77
45327;BME280;31062;49.678;24.560;2023-02-13T13:50:40;99567.66;;;3.84;81.69
45327;BME280;31062;49.678;24.560;2023-02-13T13:53:26;99514.25;;;3.35;81.31
45327;BME280;31062;49.678;24.560;2023-02-13T13:56:12;99613.81;;;4.08;81.07
45327;BME280;31062;49.678;24.560;2023-02-13T13:58:57;99606.34;;;4.03;81.32
45327;BME280;31062;49.678;24.560;2023-02-13T14:01:43;99412.50;;;2.77;80.94
45327;BME280;31062;49.678;24.560;2023-02-13T14:07:22;99456.13;;;2.98;81.28
45327;BME280;31062;49.678;24.560;2023-02-13T14:13:07;99615.31;;;4.09;81.58
45327;BME280;31062;49.678;24.560;2023-02-13T14:15:53;99576.38;;;3.83;81.26
45327;BME280;31062;49.678;24.560;2023-02-13T14:18:44;99602.59;;;4.00;80.93
45327;BME280;31062;49.678;24.560;2023-02-13T14:21:30;99454.16;;;3.04;80.80
45327;BME280;31062;49.678;24.560;2023-02-13T14:24:17;99395.03;;;2.69;80.73
45327;BME280;31062;49.678;24.560;2023-02-13T14:27:19;99595.34;;;3.97;81.04
45327;BME280;31062;49.678;24.560;2023-02-13T14:30:28;99610.59;;;4.15;80.56
45327;BME280;31062;49.678;24.560;2023-02-13T14:33:26;99612.84;;;4.11;80.53
45327;BME280;31062;49.678;24.560;2023-02-13T14:36:26;99457.59;;;2.99;80.83
45327;BME280;31062;49.678;24.560;2023-02-13T14:39:27;99645.50;;;4.15;80.64
45327;BME280;31062;49.678;24.560;2023-02-13T14:42:26;99616.56;;;4.14;80.68
45327;BME280;31062;49.678;24.560;2023-02-13T14:45:15;99613.34;;;4.15;80.77
45327;BME280;31062;49.678;24.560;2023-02-13T14:48:07;99444.66;;;3.05;80.63
45327;BME280;31062;49.678;24.560;2023-02-13T14:50:56;99577.13;;;4.00;81.08
45327;BME280;31062;49.678;24.560;2023-02-13T14:53:50;99628.78;;;4.24;80.51
45327;BME280;31062;49.678;24.560;2023-02-13T14:56:37;99584.66;;;4.16;80.34
45327;BME280;31062;49.678;24.560;2023-02-13T14:59:28;99438.72;;;3.12;80.22
45327;BME280;31062;49.678;24.560;2023-02-13T15:02:41;99597.34;;;4.19;80.41
45327;BME280;31062;49.678;24.560;2023-02-13T15:05:32;99560.94;;;3.96;80.34
45327;BME280;31062;49.678;24.560;2023-02-13T15:08:25;99582.88;;;4.13;80.37
45327;BME280;31062;49.678;24.560;2023-02-13T15:11:12;99584.66;;;4.10;80.34
45327;BME280;31062;49.678;24.560;2023-02-13T15:17:13;99592.34;;;4.01;80.58
45327;BME280;31062;49.678;24.560;2023-02-13T15:20:08;99571.16;;;4.01;80.71
45327;BME280;31062;49.678;24.560;2023-02-13T15:23:03;99563.19;;;4.03;80.95
45327;BME280;31062;49.678;24.560;2023-02-13T15:26:18;99576.41;;;4.05;81.32
45327;BME280;31062;49.678;24.560;2023-02-13T15:29:15;99540.47;;;3.81;81.10
45327;BME280;31062;49.678;24.560;2023-02-13T15:32:18;99544.47;;;3.91;81.27
45327;BME280;31062;49.678;24.560;2023-02-13T15:41:17;99553.72;;;3.99;81.11
45327;BME280;31062;49.678;24.560;2023-02-13T15:44:06;99552.44;;;4.00;81.24
45327;BME280;31062;49.678;24.560;2023-02-13T15:46:54;99523.50;;;3.77;81.07
45327;BME280;31062;49.678;24.560;2023-02-13T15:49:47;99560.94;;;3.96;81.30
45327;BME280;31062;49.678;24.560;2023-02-13T15:52:36;99556.47;;;3.99;81.32
45327;BME280;31062;49.678;24.560;2023-02-13T15:55:27;99354.44;;;2.62;81.20
45327;BME280;31062;49.678;24.560;2023-02-13T15:58:13;99559.44;;;3.90;81.17
45327;BME280;31062;49.678;24.560;2023-02-13T16:01:03;99400.59;;;2.92;81.06
45327;BME280;31062;49.678;24.560;2023-02-13T16:04:02;99543.22;;;3.81;81.14
45327;BME280;31062;49.678;24.560;2023-02-13T16:06:52;99563.19;;;3.98;80.95
45327;BME280;31062;49.678;24.560;2023-02-13T16:09:39;99342.25;;;2.58;81.12
45327;BME280;31062;49.678;24.560;2023-02-13T16:12:26;99535.97;;;4.00;81.15
45327;BME280;31062;49.678;24.560;2023-02-13T16:15:16;99526.50;;;4.01;80.99
45327;BME280;31062;49.678;24.560;2023-02-13T16:18:18;99522.78;;;3.98;80.88
45327;BME280;31062;49.678;24.560;2023-02-13T16:21:05;99500.09;;;3.87;80.78
45327;BME280;31062;49.678;24.560;2023-02-13T16:23:55;99509.56;;;3.97;80.75
45327;BME280;31062;49.678;24.560;2023-02-13T16:26:42;99553.44;;;3.97;80.67
45327;BME280;31062;49.678;24.560;2023-02-13T16:29:28;99374.66;;;2.93;80.50
45327;BME280;31062;49.678;24.560;2023-02-13T16:32:22;99541.97;;;4.04;80.65
45327;BME280;31062;49.678;24.560;2023-02-13T16:44:27;99522.50;;;4.02;80.70
45327;BME280;31062;49.678;24.560;2023-02-13T16:47:22;99521.53;;;4.05;80.38
45327;BME280;31062;49.678;24.560;2023-02-13T16:50:13;99336.03;;;2.68;80.18
45327;BME280;31062;49.678;24.560;2023-02-13T16:53:01;99509.28;;;3.89;80.56
45327;BME280;31062;49.678;24.560;2023-02-13T16:56:03;99513.06;;;3.92;80.44
45327;BME280;31062;49.678;24.560;2023-02-13T17:05:16;99518.25;;;4.06;80.59
45327;BME280;31062;49.678;24.560;2023-02-13T17:08:03;99496.81;;;3.88;80.40
45327;BME280;31062;49.678;24.560;2023-02-13T17:11:06;99387.91;;;3.16;80.46
45327;BME280;31062;49.678;24.560;2023-02-13T17:13:52;99516.78;;;4.00;80.89
45327;BME280;31062;49.678;24.560;2023-02-13T17:16:38;99539.72;;;3.97;80.94
45327;BME280;31062;49.678;24.560;2023-02-13T17:19:27;99347.53;;;2.89;80.82
45327;BME280;31062;49.678;24.560;2023-02-13T17:25:28;99528.00;;;4.02;80.89
45327;BME280;31062;49.678;24.560;2023-02-13T17:28:25;99525.25;;;4.02;80.61
45327;BME280;31062;49.678;24.560;2023-02-13T17:31:12;99502.56;;;3.96;80.51
45327;BME280;31062;49.678;24.560;2023-02-13T17:33:58;99516.53;;;3.98;81.11
45327;BME280;31062;49.678;24.560;2023-02-13T17:36:44;99491.34;;;3.83;81.34
45327;BME280;31062;49.678;24.560;2023-02-13T17:39:30;99515.03;;;3.97;81.00
45327;BME280;31062;49.678;24.560;2023-02-13T17:42:24;99328.09;;;2.70;81.10
45327;BME280;31062;49.678;24.560;2023-02-13T17:45:14;99516.53;;;3.98;81.30
45327;BME280;31062;49.678;24.560;2023-02-13T17:48:00;99507.56;;;3.81;81.55
45327;BME280;31062;49.678;24.560;2023-02-13T17:50:47;99514.03;;;3.89;81.73
45327;BME280;31062;49.678;24.560;2023-02-13T17:53:34;99525.75;;;3.95;81.72
45327;BME280;31062;49.678;24.560;2023-02-13T17:56:20;99507.78;;;3.88;81.78
45327;BME280;31062;49.678;24.560;2023-02-13T17:59:06;99523.50;;;3.88;81.95
45327;BME280;31062;49.678;24.560;2023-02-13T18:01:52;99510.53;;;3.88;81.42